sensor_id;sensor_type;location;lat;lon;timestamp;P1;durP1;ratioP1;P2;durP2;ratioP2
41221;SDS011;26952;42.884;23.918;2023-02-20T00:01:51;11.75;;;10.65;;
41221;SDS011;26952;42.884;23.918;2023-02-20T00:04:19;11.27;;;8.63;;
41221;SDS011;26952;42.884;23.918;2023-02-20T00:06:44;11.60;;;10.50;;
41221;SDS011;26952;42.884;23.918;2023-02-20T00:09:10;12.88;;;11.55;;
41221;SDS011;26952;42.884;23.918;2023-02-20T00:11:36;13.40;;;12.13;;
41221;SDS011;26952;42.884;23.918;2023-02-20T00:14:01;13.27;;;12.07;;
41221;SDS011;26952;42.884;23.918;2023-02-20T00:16:27;12.95;;;11.70;;
41221;SDS011;26952;42.884;23.918;2023-02-20T00:18:52;11.27;;;9.95;;
41221;SDS011;26952;42.884;23.918;2023-02-20T00:21:18;11.98;;;10.40;;
41221;SDS011;26952;42.884;23.918;2023-02-20T00:23:43;11.38;;;10.38;;
41221;SDS011;26952;42.884;23.918;2023-02-20T00:26:09;12.40;;;11.13;;
41221;SDS011;26952;42.884;23.918;2023-02-20T00:28:37;11.93;;;10.95;;
41221;SDS011;26952;42.884;23.918;2023-02-20T00:31:04;11.05;;;9.95;;
41221;SDS011;26952;42.884;23.918;2023-02-20T00:33:30;10.57;;;8.45;;
41221;SDS011;26952;42.884;23.918;2023-02-20T00:35:55;8.48;;;7.57;;
41221;SDS011;26952;42.884;23.918;2023-02-20T00:38:21;7.50;;;6.57;;
41221;SDS011;26952;42.884;23.918;2023-02-20T00:40:46;9.93;;;7.55;;
41221;SDS011;26952;42.884;23.918;2023-02-20T00:43:11;7.90;;;7.05;;
41221;SDS011;26952;42.884;23.918;2023-02-20T00:45:37;7.68;;;6.93;;
41221;SDS011;26952;42.884;23.918;2023-02-20T00:48:02;8.55;;;7.45;;
41221;SDS011;26952;42.884;23.918;2023-02-20T00:50:28;11.88;;;7.45;;
41221;SDS011;26952;42.884;23.918;2023-02-20T00:52:53;7.68;;;6.93;;
41221;SDS011;26952;42.884;23.918;2023-02-20T00:55:19;8.23;;;7.25;;
41221;SDS011;26952;42.884;23.918;2023-02-20T00:57:44;9.60;;;6.05;;
41221;SDS011;26952;42.884;23.918;2023-02-20T01:00:15;6.93;;;6.05;;
41221;SDS011;26952;42.884;23.918;2023-02-20T01:02:46;7.88;;;6.03;;
41221;SDS011;26952;42.884;23.918;2023-02-20T01:05:12;7.00;;;6.15;;
41221;SDS011;26952;42.884;23.918;2023-02-20T01:07:37;8.10;;;6.07;;
41221;SDS011;26952;42.884;23.918;2023-02-20T01:10:03;10.40;;;6.53;;
41221;SDS011;26952;42.884;23.918;2023-02-20T01:12:29;8.98;;;6.03;;
41221;SDS011;26952;42.884;23.918;2023-02-20T01:14:54;7.28;;;6.40;;
41221;SDS011;26952;42.884;23.918;2023-02-20T01:17:20;8.43;;;6.88;;
41221;SDS011;26952;42.884;23.918;2023-02-20T01:19:45;8.65;;;6.55;;
41221;SDS011;26952;42.884;23.918;2023-02-20T01:22:10;6.38;;;5.78;;
41221;SDS011;26952;42.884;23.918;2023-02-20T01:24:36;8.57;;;6.43;;
41221;SDS011;26952;42.884;23.918;2023-02-20T01:27:01;9.23;;;6.00;;
41221;SDS011;26952;42.884;23.918;2023-02-20T01:29:27;7.93;;;6.43;;
41221;SDS011;26952;42.884;23.918;2023-02-20T01:31:53;7.95;;;6.35;;
41221;SDS011;26952;42.884;23.918;2023-02-20T01:34:19;6.28;;;5.68;;
41221;SDS011;26952;42.884;23.918;2023-02-20T01:36:49;6.47;;;5.60;;
41221;SDS011;26952;42.884;23.918;2023-02-20T01:39:16;6.93;;;6.10;;
41221;SDS011;26952;42.884;23.918;2023-02-20T01:41:48;6.63;;;5.93;;
41221;SDS011;26952;42.884;23.918;2023-02-20T01:44:22;7.40;;;5.80;;
41221;SDS011;26952;42.884;23.918;2023-02-20T01:46:51;7.10;;;6.13;;
41221;SDS011;26952;42.884;23.918;2023-02-20T01:49:20;18.80;;;12.25;;
41221;SDS011;26952;42.884;23.918;2023-02-20T01:51:55;5.95;;;5.38;;
41221;SDS011;26952;42.884;23.918;2023-02-20T01:54:26;7.43;;;5.72;;
41221;SDS011;26952;42.884;23.918;2023-02-20T01:56:53;5.43;;;4.93;;
41221;SDS011;26952;42.884;23.918;2023-02-20T01:59:22;6.07;;;5.23;;
41221;SDS011;26952;42.884;23.918;2023-02-20T02:01:51;5.47;;;5.07;;
41221;SDS011;26952;42.884;23.918;2023-02-20T02:04:17;9.07;;;4.80;;
41221;SDS011;26952;42.884;23.918;2023-02-20T02:06:44;5.38;;;4.88;;
41221;SDS011;26952;42.884;23.918;2023-02-20T02:09:17;5.13;;;4.65;;
41221;SDS011;26952;42.884;23.918;2023-02-20T02:11:43;4.83;;;4.43;;
41221;SDS011;26952;42.884;23.918;2023-02-20T02:14:11;4.85;;;4.45;;
41221;SDS011;26952;42.884;23.918;2023-02-20T02:16:50;5.45;;;4.13;;
41221;SDS011;26952;42.884;23.918;2023-02-20T02:39:00;5.13;;;4.63;;
41221;SDS011;26952;42.884;23.918;2023-02-20T02:46:55;5.00;;;4.50;;
41221;SDS011;26952;42.884;23.918;2023-02-20T02:49:34;5.22;;;4.72;;
41221;SDS011;26952;42.884;23.918;2023-02-20T02:52:05;4.72;;;4.32;;
41221;SDS011;26952;42.884;23.918;2023-02-20T02:54:32;5.50;;;5.00;;
41221;SDS011;26952;42.884;23.918;2023-02-20T02:59:44;4.50;;;4.10;;
41221;SDS011;26952;42.884;23.918;2023-02-20T03:02:12;10.45;;;5.88;;
41221;SDS011;26952;42.884;23.918;2023-02-20T03:04:39;7.38;;;4.82;;
41221;SDS011;26952;42.884;23.918;2023-02-20T03:07:10;5.30;;;4.80;;
41221;SDS011;26952;42.884;23.918;2023-02-20T03:09:41;5.18;;;4.78;;
41221;SDS011;26952;42.884;23.918;2023-02-20T03:12:12;5.35;;;4.85;;
41221;SDS011;26952;42.884;23.918;2023-02-20T03:17:49;5.38;;;4.97;;
41221;SDS011;26952;42.884;23.918;2023-02-20T03:20:22;6.20;;;5.18;;
41221;SDS011;26952;42.884;23.918;2023-02-20T03:25:27;5.22;;;4.72;;
41221;SDS011;26952;42.884;23.918;2023-02-20T03:28:07;5.72;;;5.15;;
41221;SDS011;26952;42.884;23.918;2023-02-20T03:30:36;4.90;;;4.40;;
41221;SDS011;26952;42.884;23.918;2023-02-20T03:33:15;6.63;;;6.03;;
41221;SDS011;26952;42.884;23.918;2023-02-20T03:36:04;6.43;;;5.53;;
41221;SDS011;26952;42.884;23.918;2023-02-20T03:38:53;7.63;;;5.82;;
41221;SDS011;26952;42.884;23.918;2023-02-20T03:41:43;8.05;;;5.70;;
41221;SDS011;26952;42.884;23.918;2023-02-20T03:44:31;5.72;;;5.22;;
41221;SDS011;26952;42.884;23.918;2023-02-20T03:46:58;6.13;;;5.43;;
41221;SDS011;26952;42.884;23.918;2023-02-20T03:49:36;6.20;;;5.38;;
41221;SDS011;26952;42.884;23.918;2023-02-20T03:52:05;6.32;;;5.40;;
41221;SDS011;26952;42.884;23.918;2023-02-20T03:54:31;5.35;;;4.85;;
41221;SDS011;26952;42.884;23.918;2023-02-20T03:57:00;6.60;;;5.95;;
41221;SDS011;26952;42.884;23.918;2023-02-20T03:59:31;6.18;;;5.20;;
41221;SDS011;26952;42.884;23.918;2023-02-20T04:02:03;13.32;;;11.93;;
41221;SDS011;26952;42.884;23.918;2023-02-20T04:06:58;9.27;;;7.15;;
41221;SDS011;26952;42.884;23.918;2023-02-20T04:09:29;6.53;;;5.93;;
41221;SDS011;26952;42.884;23.918;2023-02-20T04:11:59;6.45;;;5.38;;
41221;SDS011;26952;42.884;23.918;2023-02-20T04:14:31;6.45;;;5.38;;
41221;SDS011;26952;42.884;23.918;2023-02-20T04:16:59;5.40;;;4.55;;
41221;SDS011;26952;42.884;23.918;2023-02-20T04:19:28;4.83;;;4.47;;
41221;SDS011;26952;42.884;23.918;2023-02-20T04:21:54;5.03;;;4.53;;
41221;SDS011;26952;42.884;23.918;2023-02-20T04:27:18;4.65;;;4.35;;
41221;SDS011;26952;42.884;23.918;2023-02-20T04:29:45;3.58;;;3.28;;
41221;SDS011;26952;42.884;23.918;2023-02-20T04:32:11;5.80;;;5.38;;
41221;SDS011;26952;42.884;23.918;2023-02-20T04:34:36;8.77;;;8.20;;
41221;SDS011;26952;42.884;23.918;2023-02-20T04:37:09;9.88;;;9.30;;
41221;SDS011;26952;42.884;23.918;2023-02-20T04:39:37;12.75;;;12.07;;
41221;SDS011;26952;42.884;23.918;2023-02-20T04:42:03;17.45;;;16.55;;
41221;SDS011;26952;42.884;23.918;2023-02-20T04:44:28;22.30;;;20.90;;
41221;SDS011;26952;42.884;23.918;2023-02-20T04:46:57;24.35;;;22.85;;
41221;SDS011;26952;42.884;23.918;2023-02-20T04:49:24;28.05;;;26.48;;
41221;SDS011;26952;42.884;23.918;2023-02-20T04:51:50;28.45;;;26.95;;
41221;SDS011;26952;42.884;23.918;2023-02-20T04:54:15;31.48;;;29.77;;
41221;SDS011;26952;42.884;23.918;2023-02-20T04:56:40;31.13;;;29.42;;
41221;SDS011;26952;42.884;23.918;2023-02-20T04:59:06;31.73;;;29.95;;
41221;SDS011;26952;42.884;23.918;2023-02-20T05:01:31;26.85;;;25.15;;
41221;SDS011;26952;42.884;23.918;2023-02-20T05:03:57;25.27;;;23.63;;
41221;SDS011;26952;42.884;23.918;2023-02-20T05:06:22;31.45;;;28.83;;
41221;SDS011;26952;42.884;23.918;2023-02-20T05:08:48;21.13;;;19.58;;
41221;SDS011;26952;42.884;23.918;2023-02-20T05:11:13;16.65;;;15.38;;
41221;SDS011;26952;42.884;23.918;2023-02-20T05:13:39;16.42;;;15.10;;
41221;SDS011;26952;42.884;23.918;2023-02-20T05:16:04;13.88;;;12.23;;
41221;SDS011;26952;42.884;23.918;2023-02-20T05:18:30;9.25;;;7.82;;
41221;SDS011;26952;42.884;23.918;2023-02-20T05:20:56;6.43;;;5.72;;
41221;SDS011;26952;42.884;23.918;2023-02-20T05:23:40;6.45;;;4.25;;
41221;SDS011;26952;42.884;23.918;2023-02-20T05:26:07;5.63;;;4.80;;
41221;SDS011;26952;42.884;23.918;2023-02-20T05:28:34;8.80;;;5.97;;
41221;SDS011;26952;42.884;23.918;2023-02-20T05:31:00;6.85;;;5.43;;
41221;SDS011;26952;42.884;23.918;2023-02-20T05:33:25;6.60;;;5.93;;
41221;SDS011;26952;42.884;23.918;2023-02-20T05:35:51;6.38;;;5.78;;
41221;SDS011;26952;42.884;23.918;2023-02-20T05:38:17;7.10;;;6.18;;
41221;SDS011;26952;42.884;23.918;2023-02-20T05:40:42;7.70;;;6.95;;
41221;SDS011;26952;42.884;23.918;2023-02-20T05:43:08;7.25;;;6.60;;
41221;SDS011;26952;42.884;23.918;2023-02-20T05:45:33;10.27;;;9.15;;
41221;SDS011;26952;42.884;23.918;2023-02-20T05:47:58;7.53;;;6.72;;
41221;SDS011;26952;42.884;23.918;2023-02-20T05:50:24;6.53;;;5.90;;
41221;SDS011;26952;42.884;23.918;2023-02-20T05:52:49;7.13;;;6.00;;
41221;SDS011;26952;42.884;23.918;2023-02-20T05:55:15;5.97;;;5.38;;
41221;SDS011;26952;42.884;23.918;2023-02-20T05:57:40;6.03;;;5.43;;
41221;SDS011;26952;42.884;23.918;2023-02-20T06:00:06;7.90;;;5.90;;
41221;SDS011;26952;42.884;23.918;2023-02-20T06:02:31;6.20;;;5.57;;
41221;SDS011;26952;42.884;23.918;2023-02-20T06:05:00;6.72;;;6.00;;
41221;SDS011;26952;42.884;23.918;2023-02-20T06:07:25;13.18;;;7.05;;
41221;SDS011;26952;42.884;23.918;2023-02-20T06:09:50;7.35;;;6.25;;
41221;SDS011;26952;42.884;23.918;2023-02-20T06:12:16;5.80;;;5.22;;
41221;SDS011;26952;42.884;23.918;2023-02-20T06:14:41;6.47;;;5.43;;
41221;SDS011;26952;42.884;23.918;2023-02-20T06:17:06;5.47;;;4.97;;
41221;SDS011;26952;42.884;23.918;2023-02-20T06:19:32;6.53;;;5.93;;
41221;SDS011;26952;42.884;23.918;2023-02-20T06:21:57;8.20;;;7.20;;
41221;SDS011;26952;42.884;23.918;2023-02-20T06:24:23;7.75;;;6.68;;
41221;SDS011;26952;42.884;23.918;2023-02-20T06:26:48;8.10;;;5.22;;
41221;SDS011;26952;42.884;23.918;2023-02-20T06:29:14;5.53;;;5.03;;
41221;SDS011;26952;42.884;23.918;2023-02-20T06:31:41;5.95;;;5.45;;
41221;SDS011;26952;42.884;23.918;2023-02-20T06:34:06;5.60;;;5.10;;
41221;SDS011;26952;42.884;23.918;2023-02-20T06:36:34;5.53;;;5.03;;
41221;SDS011;26952;42.884;23.918;2023-02-20T06:39:01;6.70;;;5.38;;
41221;SDS011;26952;42.884;23.918;2023-02-20T06:41:28;5.85;;;5.25;;
41221;SDS011;26952;42.884;23.918;2023-02-20T06:43:53;6.55;;;4.68;;
41221;SDS011;26952;42.884;23.918;2023-02-20T06:46:19;5.53;;;4.43;;
41221;SDS011;26952;42.884;23.918;2023-02-20T06:48:47;4.85;;;4.35;;
41221;SDS011;26952;42.884;23.918;2023-02-20T06:51:18;4.65;;;4.25;;
41221;SDS011;26952;42.884;23.918;2023-02-20T06:53:45;6.05;;;4.82;;
41221;SDS011;26952;42.884;23.918;2023-02-20T06:56:13;4.55;;;4.15;;
41221;SDS011;26952;42.884;23.918;2023-02-20T06:58:42;5.20;;;4.03;;
41221;SDS011;26952;42.884;23.918;2023-02-20T07:01:09;4.93;;;4.53;;
41221;SDS011;26952;42.884;23.918;2023-02-20T07:03:34;9.13;;;8.23;;
41221;SDS011;26952;42.884;23.918;2023-02-20T07:06:01;6.65;;;6.15;;
41221;SDS011;26952;42.884;23.918;2023-02-20T07:08:26;10.48;;;9.77;;
41221;SDS011;26952;42.884;23.918;2023-02-20T07:10:52;13.68;;;12.88;;
41221;SDS011;26952;42.884;23.918;2023-02-20T07:13:19;14.70;;;13.90;;
41221;SDS011;26952;42.884;23.918;2023-02-20T07:15:45;18.60;;;17.52;;
41221;SDS011;26952;42.884;23.918;2023-02-20T07:18:10;25.90;;;24.48;;
41221;SDS011;26952;42.884;23.918;2023-02-20T07:20:36;25.25;;;23.88;;
41221;SDS011;26952;42.884;23.918;2023-02-20T07:23:01;17.83;;;16.92;;
41221;SDS011;26952;42.884;23.918;2023-02-20T07:25:28;16.35;;;15.45;;
41221;SDS011;26952;42.884;23.918;2023-02-20T07:27:53;8.63;;;7.72;;
41221;SDS011;26952;42.884;23.918;2023-02-20T07:30:19;9.20;;;8.50;;
41221;SDS011;26952;42.884;23.918;2023-02-20T07:32:44;9.00;;;8.45;;
41221;SDS011;26952;42.884;23.918;2023-02-20T07:35:09;13.23;;;12.43;;
41221;SDS011;26952;42.884;23.918;2023-02-20T07:37:35;20.42;;;19.38;;
41221;SDS011;26952;42.884;23.918;2023-02-20T07:40:00;19.63;;;18.52;;
41221;SDS011;26952;42.884;23.918;2023-02-20T07:42:26;16.58;;;15.75;;
41221;SDS011;26952;42.884;23.918;2023-02-20T07:44:51;15.50;;;14.60;;
41221;SDS011;26952;42.884;23.918;2023-02-20T07:47:16;30.08;;;26.98;;
41221;SDS011;26952;42.884;23.918;2023-02-20T07:49:42;15.60;;;14.15;;
41221;SDS011;26952;42.884;23.918;2023-02-20T07:52:07;14.05;;;13.00;;
41221;SDS011;26952;42.884;23.918;2023-02-20T07:54:33;11.95;;;11.23;;
41221;SDS011;26952;42.884;23.918;2023-02-20T07:56:58;15.25;;;14.40;;
41221;SDS011;26952;42.884;23.918;2023-02-20T07:59:24;13.38;;;12.57;;
41221;SDS011;26952;42.884;23.918;2023-02-20T08:01:49;22.33;;;21.13;;
41221;SDS011;26952;42.884;23.918;2023-02-20T08:04:15;25.85;;;24.33;;
41221;SDS011;26952;42.884;23.918;2023-02-20T08:06:40;25.60;;;24.02;;
41221;SDS011;26952;42.884;23.918;2023-02-20T08:09:06;28.08;;;26.02;;
41221;SDS011;26952;42.884;23.918;2023-02-20T08:11:32;21.73;;;20.52;;
41221;SDS011;26952;42.884;23.918;2023-02-20T08:14:00;12.13;;;11.25;;
41221;SDS011;26952;42.884;23.918;2023-02-20T08:16:26;7.57;;;7.07;;
41221;SDS011;26952;42.884;23.918;2023-02-20T08:18:52;17.10;;;16.15;;
41221;SDS011;26952;42.884;23.918;2023-02-20T08:21:18;12.25;;;11.55;;
41221;SDS011;26952;42.884;23.918;2023-02-20T08:23:43;10.60;;;9.80;;
41221;SDS011;26952;42.884;23.918;2023-02-20T08:26:09;10.52;;;9.93;;
41221;SDS011;26952;42.884;23.918;2023-02-20T08:28:34;6.75;;;6.35;;
41221;SDS011;26952;42.884;23.918;2023-02-20T08:31:00;5.70;;;5.30;;
41221;SDS011;26952;42.884;23.918;2023-02-20T08:33:25;13.50;;;12.75;;
41221;SDS011;26952;42.884;23.918;2023-02-20T08:35:50;17.33;;;16.42;;
41221;SDS011;26952;42.884;23.918;2023-02-20T08:38:31;15.82;;;15.02;;
41221;SDS011;26952;42.884;23.918;2023-02-20T08:40:59;8.15;;;7.68;;
41221;SDS011;26952;42.884;23.918;2023-02-20T08:43:28;8.25;;;7.85;;
41221;SDS011;26952;42.884;23.918;2023-02-20T08:45:53;4.40;;;4.10;;
41221;SDS011;26952;42.884;23.918;2023-02-20T08:48:19;3.97;;;3.67;;
41221;SDS011;26952;42.884;23.918;2023-02-20T08:50:44;4.75;;;4.38;;
41221;SDS011;26952;42.884;23.918;2023-02-20T08:53:11;4.95;;;4.65;;
41221;SDS011;26952;42.884;23.918;2023-02-20T08:55:37;4.90;;;4.60;;
41221;SDS011;26952;42.884;23.918;2023-02-20T08:58:03;4.00;;;3.80;;
41221;SDS011;26952;42.884;23.918;2023-02-20T09:00:28;7.57;;;7.18;;
41221;SDS011;26952;42.884;23.918;2023-02-20T09:02:54;7.80;;;7.40;;
41221;SDS011;26952;42.884;23.918;2023-02-20T09:05:19;5.75;;;5.45;;
41221;SDS011;26952;42.884;23.918;2023-02-20T09:07:45;2.03;;;1.45;;
41221;SDS011;26952;42.884;23.918;2023-02-20T09:10:10;3.25;;;3.10;;
41221;SDS011;26952;42.884;23.918;2023-02-20T09:12:36;1.90;;;1.80;;
41221;SDS011;26952;42.884;23.918;2023-02-20T09:15:03;2.33;;;2.15;;
41221;SDS011;26952;42.884;23.918;2023-02-20T09:17:29;2.75;;;2.55;;
41221;SDS011;26952;42.884;23.918;2023-02-20T09:19:54;2.58;;;2.40;;
41221;SDS011;26952;42.884;23.918;2023-02-20T09:22:20;2.13;;;2.03;;
41221;SDS011;26952;42.884;23.918;2023-02-20T09:24:47;1.85;;;1.75;;
41221;SDS011;26952;42.884;23.918;2023-02-20T09:27:12;1.58;;;1.48;;
41221;SDS011;26952;42.884;23.918;2023-02-20T09:29:37;3.88;;;2.00;;
41221;SDS011;26952;42.884;23.918;2023-02-20T09:32:05;1.60;;;1.50;;
41221;SDS011;26952;42.884;23.918;2023-02-20T09:34:30;2.55;;;1.52;;
41221;SDS011;26952;42.884;23.918;2023-02-20T09:36:56;5.78;;;1.70;;
41221;SDS011;26952;42.884;23.918;2023-02-20T09:39:21;4.72;;;3.40;;
41221;SDS011;26952;42.884;23.918;2023-02-20T09:44:26;1.60;;;1.50;;
41221;SDS011;26952;42.884;23.918;2023-02-20T09:46:54;3.03;;;1.63;;
41221;SDS011;26952;42.884;23.918;2023-02-20T09:49:28;2.72;;;2.53;;
41221;SDS011;26952;42.884;23.918;2023-02-20T09:52:05;3.30;;;3.10;;
41221;SDS011;26952;42.884;23.918;2023-02-20T09:54:35;3.70;;;3.40;;
41221;SDS011;26952;42.884;23.918;2023-02-20T09:57:08;3.25;;;3.05;;
41221;SDS011;26952;42.884;23.918;2023-02-20T09:59:37;3.30;;;3.15;;
41221;SDS011;26952;42.884;23.918;2023-02-20T10:05:01;3.10;;;2.90;;
41221;SDS011;26952;42.884;23.918;2023-02-20T10:07:40;2.78;;;2.58;;
41221;SDS011;26952;42.884;23.918;2023-02-20T10:10:26;2.63;;;2.53;;
41221;SDS011;26952;42.884;23.918;2023-02-20T10:13:04;1.98;;;1.75;;
41221;SDS011;26952;42.884;23.918;2023-02-20T10:18:49;2.70;;;2.50;;
41221;SDS011;26952;42.884;23.918;2023-02-20T10:21:51;1.73;;;1.63;;
41221;SDS011;26952;42.884;23.918;2023-02-20T10:26:51;2.47;;;2.22;;
41221;SDS011;26952;42.884;23.918;2023-02-20T10:29:25;2.15;;;1.50;;
41221;SDS011;26952;42.884;23.918;2023-02-20T10:35:06;1.52;;;1.42;;
41221;SDS011;26952;42.884;23.918;2023-02-20T10:37:38;2.08;;;1.98;;
41221;SDS011;26952;42.884;23.918;2023-02-20T10:48:01;1.05;;;1.05;;
41221;SDS011;26952;42.884;23.918;2023-02-20T10:50:38;2.47;;;1.58;;
41221;SDS011;26952;42.884;23.918;2023-02-20T10:53:11;2.22;;;1.50;;
41221;SDS011;26952;42.884;23.918;2023-02-20T11:01:15;2.22;;;2.10;;
41221;SDS011;26952;42.884;23.918;2023-02-20T11:03:51;2.42;;;2.22;;
41221;SDS011;26952;42.884;23.918;2023-02-20T11:06:40;1.98;;;1.88;;
41221;SDS011;26952;42.884;23.918;2023-02-20T11:09:09;3.35;;;2.00;;
41221;SDS011;26952;42.884;23.918;2023-02-20T11:11:35;2.35;;;2.25;;
41221;SDS011;26952;42.884;23.918;2023-02-20T11:14:15;3.05;;;2.42;;
41221;SDS011;26952;42.884;23.918;2023-02-20T11:17:05;2.10;;;2.00;;
41221;SDS011;26952;42.884;23.918;2023-02-20T11:22:18;1.90;;;1.70;;
41221;SDS011;26952;42.884;23.918;2023-02-20T11:25:17;2.55;;;2.45;;
41221;SDS011;26952;42.884;23.918;2023-02-20T11:27:50;4.45;;;2.58;;
41221;SDS011;26952;42.884;23.918;2023-02-20T11:30:29;6.25;;;2.17;;
41221;SDS011;26952;42.884;23.918;2023-02-20T11:33:00;2.00;;;1.90;;
41221;SDS011;26952;42.884;23.918;2023-02-20T11:35:31;1.95;;;1.77;;
41221;SDS011;26952;42.884;23.918;2023-02-20T11:38:15;2.72;;;2.40;;
41221;SDS011;26952;42.884;23.918;2023-02-20T11:40:41;4.00;;;1.80;;
41221;SDS011;26952;42.884;23.918;2023-02-20T11:45:37;1.88;;;1.77;;
41221;SDS011;26952;42.884;23.918;2023-02-20T11:48:12;2.03;;;1.92;;
41221;SDS011;26952;42.884;23.918;2023-02-20T11:50:43;10.63;;;2.13;;
41221;SDS011;26952;42.884;23.918;2023-02-20T11:53:17;5.13;;;3.63;;
41221;SDS011;26952;42.884;23.918;2023-02-20T11:55:42;5.32;;;2.60;;
41221;SDS011;26952;42.884;23.918;2023-02-20T11:58:09;1.95;;;1.85;;
41221;SDS011;26952;42.884;23.918;2023-02-20T12:00:47;2.65;;;2.55;;
41221;SDS011;26952;42.884;23.918;2023-02-20T12:03:20;1.80;;;1.70;;
41221;SDS011;26952;42.884;23.918;2023-02-20T12:05:47;2.03;;;1.80;;
41221;SDS011;26952;42.884;23.918;2023-02-20T12:11:07;2.67;;;1.77;;
41221;SDS011;26952;42.884;23.918;2023-02-20T12:13:35;1.83;;;1.70;;
41221;SDS011;26952;42.884;23.918;2023-02-20T12:18:44;1.75;;;1.65;;
41221;SDS011;26952;42.884;23.918;2023-02-20T12:21:32;2.45;;;1.70;;
41221;SDS011;26952;42.884;23.918;2023-02-20T12:26:53;2.20;;;2.00;;
41221;SDS011;26952;42.884;23.918;2023-02-20T12:32:17;2.58;;;2.38;;
41221;SDS011;26952;42.884;23.918;2023-02-20T12:34:57;4.68;;;2.60;;
41221;SDS011;26952;42.884;23.918;2023-02-20T12:40:34;1.83;;;1.73;;
41221;SDS011;26952;42.884;23.918;2023-02-20T12:45:51;6.05;;;2.33;;
41221;SDS011;26952;42.884;23.918;2023-02-20T12:52:14;2.78;;;2.58;;
41221;SDS011;26952;42.884;23.918;2023-02-20T12:54:16;4.15;;;2.65;;
41221;SDS011;26952;42.884;23.918;2023-02-20T13:02:30;1.98;;;1.88;;
41221;SDS011;26952;42.884;23.918;2023-02-20T13:05:00;2.42;;;2.00;;
41221;SDS011;26952;42.884;23.918;2023-02-20T13:10:15;1.90;;;1.80;;
41221;SDS011;26952;42.884;23.918;2023-02-20T13:12:47;2.00;;;1.90;;
41221;SDS011;26952;42.884;23.918;2023-02-20T13:20:39;1.90;;;1.80;;
41221;SDS011;26952;42.884;23.918;2023-02-20T13:25:42;2.78;;;1.98;;
41221;SDS011;26952;42.884;23.918;2023-02-20T13:30:36;1.70;;;1.60;;
41221;SDS011;26952;42.884;23.918;2023-02-20T13:33:21;1.85;;;1.75;;
41221;SDS011;26952;42.884;23.918;2023-02-20T13:35:52;1.77;;;1.67;;
41221;SDS011;26952;42.884;23.918;2023-02-20T13:38:20;1.85;;;1.67;;
41221;SDS011;26952;42.884;23.918;2023-02-20T13:45:49;3.22;;;3.03;;
41221;SDS011;26952;42.884;23.918;2023-02-20T13:48:42;1.97;;;1.80;;
41221;SDS011;26952;42.884;23.918;2023-02-20T13:56:24;2.05;;;1.75;;
41221;SDS011;26952;42.884;23.918;2023-02-20T13:58:55;2.05;;;1.70;;
41221;SDS011;26952;42.884;23.918;2023-02-20T14:01:23;2.72;;;1.90;;
41221;SDS011;26952;42.884;23.918;2023-02-20T14:03:58;2.17;;;2.08;;
41221;SDS011;26952;42.884;23.918;2023-02-20T14:06:26;2.92;;;1.90;;
41221;SDS011;26952;42.884;23.918;2023-02-20T14:09:05;2.58;;;2.38;;
41221;SDS011;26952;42.884;23.918;2023-02-20T14:11:34;1.60;;;1.50;;
41221;SDS011;26952;42.884;23.918;2023-02-20T14:14:19;2.95;;;2.35;;
41221;SDS011;26952;42.884;23.918;2023-02-20T14:16:50;2.40;;;2.20;;
41221;SDS011;26952;42.884;23.918;2023-02-20T14:19:26;3.78;;;2.10;;
41221;SDS011;26952;42.884;23.918;2023-02-20T14:21:53;1.40;;;1.30;;
41221;SDS011;26952;42.884;23.918;2023-02-20T14:24:20;1.88;;;1.77;;
41221;SDS011;26952;42.884;23.918;2023-02-20T14:26:51;2.90;;;2.28;;
41221;SDS011;26952;42.884;23.918;2023-02-20T14:29:27;4.47;;;3.08;;
41221;SDS011;26952;42.884;23.918;2023-02-20T14:31:57;2.90;;;2.70;;
41221;SDS011;26952;42.884;23.918;2023-02-20T14:40:33;3.00;;;2.80;;
41221;SDS011;26952;42.884;23.918;2023-02-20T14:43:02;3.10;;;2.90;;
41221;SDS011;26952;42.884;23.918;2023-02-20T14:47:58;2.00;;;1.90;;
41221;SDS011;26952;42.884;23.918;2023-02-20T14:50:31;3.17;;;2.38;;
41221;SDS011;26952;42.884;23.918;2023-02-20T14:53:13;2.88;;;2.67;;
41221;SDS011;26952;42.884;23.918;2023-02-20T14:55:40;4.53;;;2.97;;
41221;SDS011;26952;42.884;23.918;2023-02-20T14:58:06;2.53;;;2.33;;
41221;SDS011;26952;42.884;23.918;2023-02-20T15:00:36;2.33;;;2.13;;
41221;SDS011;26952;42.884;23.918;2023-02-20T15:03:09;2.03;;;1.92;;
41221;SDS011;26952;42.884;23.918;2023-02-20T15:08:14;3.33;;;3.03;;
41221;SDS011;26952;42.884;23.918;2023-02-20T15:10:46;3.67;;;3.47;;
41221;SDS011;26952;42.884;23.918;2023-02-20T15:13:21;3.33;;;3.13;;
41221;SDS011;26952;42.884;23.918;2023-02-20T15:15:52;4.05;;;3.85;;
41221;SDS011;26952;42.884;23.918;2023-02-20T15:18:41;7.30;;;4.60;;
41221;SDS011;26952;42.884;23.918;2023-02-20T15:23:36;3.70;;;3.28;;
41221;SDS011;26952;42.884;23.918;2023-02-20T15:31:42;3.78;;;3.47;;
41221;SDS011;26952;42.884;23.918;2023-02-20T15:34:19;3.88;;;3.47;;
41221;SDS011;26952;42.884;23.918;2023-02-20T15:36:47;4.72;;;3.80;;
41221;SDS011;26952;42.884;23.918;2023-02-20T15:39:13;7.63;;;5.65;;
41221;SDS011;26952;42.884;23.918;2023-02-20T15:41:41;7.05;;;5.28;;
41221;SDS011;26952;42.884;23.918;2023-02-20T15:44:06;6.38;;;5.70;;
41221;SDS011;26952;42.884;23.918;2023-02-20T15:46:32;7.63;;;5.10;;
41221;SDS011;26952;42.884;23.918;2023-02-20T15:48:58;5.15;;;4.75;;
41221;SDS011;26952;42.884;23.918;2023-02-20T15:51:24;7.65;;;7.05;;
41221;SDS011;26952;42.884;23.918;2023-02-20T15:53:52;8.75;;;7.95;;
41221;SDS011;26952;42.884;23.918;2023-02-20T15:56:20;8.25;;;7.15;;
41221;SDS011;26952;42.884;23.918;2023-02-20T15:58:46;7.90;;;7.35;;
41221;SDS011;26952;42.884;23.918;2023-02-20T16:01:12;10.02;;;9.13;;
41221;SDS011;26952;42.884;23.918;2023-02-20T16:03:37;8.98;;;8.18;;
41221;SDS011;26952;42.884;23.918;2023-02-20T16:06:03;21.83;;;15.95;;
41221;SDS011;26952;42.884;23.918;2023-02-20T16:08:28;18.65;;;12.90;;
41221;SDS011;26952;42.884;23.918;2023-02-20T16:10:54;5.32;;;5.03;;
41221;SDS011;26952;42.884;23.918;2023-02-20T16:13:30;5.53;;;5.03;;
41221;SDS011;26952;42.884;23.918;2023-02-20T16:15:59;4.15;;;3.65;;
41221;SDS011;26952;42.884;23.918;2023-02-20T16:18:31;3.60;;;3.30;;
41221;SDS011;26952;42.884;23.918;2023-02-20T16:20:57;4.45;;;4.15;;
41221;SDS011;26952;42.884;23.918;2023-02-20T16:23:22;4.22;;;4.03;;
41221;SDS011;26952;42.884;23.918;2023-02-20T16:25:48;4.35;;;4.10;;
41221;SDS011;26952;42.884;23.918;2023-02-20T16:28:15;5.07;;;4.20;;
41221;SDS011;26952;42.884;23.918;2023-02-20T16:30:41;4.57;;;4.28;;
41221;SDS011;26952;42.884;23.918;2023-02-20T16:35:42;3.58;;;3.28;;
41221;SDS011;26952;42.884;23.918;2023-02-20T16:38:08;3.40;;;3.17;;
41221;SDS011;26952;42.884;23.918;2023-02-20T16:40:34;3.85;;;3.47;;
41221;SDS011;26952;42.884;23.918;2023-02-20T16:42:59;4.30;;;4.00;;
41221;SDS011;26952;42.884;23.918;2023-02-20T16:45:25;4.80;;;4.57;;
41221;SDS011;26952;42.884;23.918;2023-02-20T16:47:52;5.28;;;5.00;;
41221;SDS011;26952;42.884;23.918;2023-02-20T16:50:19;4.38;;;3.97;;
41221;SDS011;26952;42.884;23.918;2023-02-20T16:52:49;4.85;;;4.65;;
41221;SDS011;26952;42.884;23.918;2023-02-20T16:57:52;5.70;;;5.40;;
41221;SDS011;26952;42.884;23.918;2023-02-20T17:00:19;6.35;;;6.05;;
41221;SDS011;26952;42.884;23.918;2023-02-20T17:02:49;5.40;;;5.10;;
41221;SDS011;26952;42.884;23.918;2023-02-20T17:05:15;6.05;;;5.75;;
41221;SDS011;26952;42.884;23.918;2023-02-20T17:07:42;6.78;;;6.47;;